Time;durP1;ratioP1;P1;durP2;ratioP2;P2;SDS_P1;SDS_P2;PMS_P1;PMS_P2;Temp;Humidity;BMP_temperature;BMP_pressure;BME280_temperature;BME280_humidity;BME280_pressure;Samples;Min_cycle;Max_cycle;Signal;HPM_P1;HPM_P2
2021/04/05 00:01:21;;;;;;;34.33;13.93;;;7.30;70.60;;;;;;5113905;28;20177;-79
2021/04/05 00:03:47;;;;;;;27.30;11.80;;;7.40;70.70;;;;;;5115734;28;20585;-78
2021/04/05 00:06:13;;;;;;;25.07;14.00;;;7.40;70.40;;;;;;5115675;28;20182;-78
2021/04/05 00:08:38;;;;;;;22.30;11.93;;;7.30;70.50;;;;;;5114349;28;20171;-79
2021/04/05 00:11:04;;;;;;;21.47;11.07;;;7.20;70.50;;;;;;5112451;28;20495;-78
2021/04/05 00:13:34;;;;;;;24.63;11.50;;;7.20;70.80;;;;;;5094997;28;20204;-78
2021/04/05 00:16:00;;;;;;;28.70;11.57;;;7.30;70.80;;;;;;5095155;28;20175;-78
2021/04/05 00:18:27;;;;;;;23.30;11.90;;;7.30;70.90;;;;;;5095256;28;20160;-78
2021/04/05 00:21:20;;;;;;;26.08;11.70;;;7.20;70.80;;;;;;5094659;28;20294;-79
2021/04/05 00:23:48;;;;;;;25.88;11.00;;;7.20;71.00;;;;;;5095138;28;20152;-78
2021/04/05 00:26:14;;;;;;;24.02;11.85;;;7.30;71.10;;;;;;5094992;28;20215;-78
2021/04/05 00:28:40;;;;;;;22.17;11.50;;;7.30;71.00;;;;;;5095338;28;20171;-78
2021/04/05 00:31:05;;;;;;;35.57;11.93;;;7.20;71.10;;;;;;5094426;28;20410;-78
2021/04/05 00:33:31;;;;;;;28.83;10.57;;;7.10;71.60;;;;;;5092542;28;20472;-78
2021/04/05 00:35:57;;;;;;;20.20;9.47;;;7.20;71.70;;;;;;5093188;28;20937;-78
2021/04/05 00:38:24;;;;;;;28.73;11.10;;;7.10;71.80;;;;;;5093429;28;20176;-78
2021/04/05 00:41:09;;;;;;;36.60;10.52;;;7.10;72.10;;;;;;5093570;28;20233;-77
2021/04/05 00:43:36;;;;;;;21.27;10.43;;;7.00;72.20;;;;;;5093616;28;20195;-77
2021/04/05 00:46:03;;;;;;;21.35;10.82;;;6.90;72.60;;;;;;5093149;28;20272;-78
2021/04/05 00:48:30;;;;;;;20.85;10.10;;;6.80;72.80;;;;;;5093557;28;20751;-78
2021/04/05 00:50:59;;;;;;;31.20;10.40;;;6.90;73.20;;;;;;5093732;28;20195;-78
2021/04/05 00:53:37;;;;;;;28.38;9.82;;;6.90;73.40;;;;;;5097858;28;20232;-78
2021/04/05 00:56:03;;;;;;;24.80;9.77;;;6.90;73.40;;;;;;5097134;28;20215;-78
2021/04/05 00:58:29;;;;;;;21.20;9.20;;;6.90;73.40;;;;;;5096763;28;20248;-78
2021/04/05 01:01:00;;;;;;;29.63;10.55;;;7.00;73.50;;;;;;5095817;28;20255;-78
2021/04/05 01:03:27;;;;;;;24.80;10.43;;;7.00;73.50;;;;;;5097018;28;20223;-78
2021/04/05 01:06:22;;;;;;;30.40;10.00;;;6.80;73.60;;;;;;5098636;28;20190;-78
2021/04/05 01:08:47;;;;;;;25.45;11.05;;;6.80;73.80;;;;;;5099187;28;20179;-77
2021/04/05 01:11:16;;;;;;;25.20;10.87;;;6.70;74.30;;;;;;5104397;28;20187;-78
2021/04/05 01:13:42;;;;;;;25.45;10.98;;;6.60;74.50;;;;;;5125457;28;20206;-77
2021/04/05 01:16:09;;;;;;;20.40;9.57;;;6.60;74.80;;;;;;5114936;28;20179;-77
2021/04/05 01:18:35;;;;;;;28.25;10.35;;;6.60;75.10;;;;;;5113256;28;20183;-77
2021/04/05 01:21:01;;;;;;;27.90;10.25;;;6.60;75.40;;;;;;5112788;28;20262;-77
2021/04/05 01:23:27;;;;;;;26.33;9.40;;;6.60;75.60;;;;;;5112921;28;20630;-78
2021/04/05 01:25:53;;;;;;;27.10;10.37;;;6.60;75.60;;;;;;5114229;28;20250;-77
2021/04/05 01:28:19;;;;;;;23.03;10.77;;;6.60;75.70;;;;;;5114202;28;20465;-78
2021/04/05 01:30:50;;;;;;;25.93;10.23;;;6.60;75.90;;;;;;5112253;28;20366;-78
2021/04/05 01:33:34;;;;;;;30.85;11.50;;;6.70;76.10;;;;;;5113975;28;20472;-78
2021/04/05 01:36:09;;;;;;;28.20;10.48;;;6.60;76.00;;;;;;5112590;28;20231;-78
2021/04/05 01:38:37;;;;;;;24.13;11.07;;;6.60;76.10;;;;;;5112613;28;20166;-78
2021/04/05 01:41:05;;;;;;;27.42;10.95;;;6.60;76.40;;;;;;5111923;28;20175;-78
2021/04/05 01:43:31;;;;;;;23.48;10.73;;;6.60;76.50;;;;;;5112341;28;20202;-78
2021/04/05 01:45:58;;;;;;;31.77;11.88;;;6.60;76.70;;;;;;5111456;28;20213;-77
2021/04/05 01:48:26;;;;;;;27.05;9.95;;;6.50;77.00;;;;;;5112895;28;20487;-77
2021/04/05 01:51:03;;;;;;;26.35;10.70;;;6.40;77.20;;;;;;5113328;28;20259;-78
2021/04/05 01:53:29;;;;;;;30.80;11.82;;;6.50;77.50;;;;;;5113065;28;20211;-77
2021/04/05 01:56:02;;;;;;;31.93;12.77;;;6.50;77.50;;;;;;5113776;28;20641;-77
2021/04/05 01:58:29;;;;;;;23.38;10.80;;;6.60;77.70;;;;;;5114096;28;20420;-78
2021/04/05 02:00:55;;;;;;;24.25;12.93;;;6.50;77.60;;;;;;5111760;28;20699;-78
2021/04/05 02:03:21;;;;;;;33.95;11.40;;;6.50;77.60;;;;;;5113257;28;20201;-78
2021/04/05 02:05:55;;;;;;;31.90;11.15;;;6.50;77.80;;;;;;5113387;28;20186;-78
2021/04/05 02:08:25;;;;;;;36.75;12.85;;;6.50;78.10;;;;;;5113453;28;20152;-78
2021/04/05 02:10:53;;;;;;;26.25;11.63;;;6.50;78.10;;;;;;5113155;28;20183;-78
2021/04/05 02:13:23;;;;;;;27.63;11.38;;;6.60;78.30;;;;;;5092984;28;20242;-78
2021/04/05 02:15:53;;;;;;;29.80;11.65;;;6.70;78.20;;;;;;5091584;28;20274;-78
2021/04/05 02:18:22;;;;;;;33.50;12.40;;;6.70;77.90;;;;;;5091392;28;20175;-78
2021/04/05 02:20:49;;;;;;;35.03;13.10;;;6.70;78.00;;;;;;5091012;28;20176;-78
2021/04/05 02:23:16;;;;;;;25.95;11.73;;;6.60;78.20;;;;;;5092796;28;20329;-78
2021/04/05 02:28:30;;;;;;;27.67;12.55;;;6.60;78.30;;;;;;5093288;28;20190;-77
2021/04/05 02:30:57;;;;;;;33.08;13.20;;;6.70;78.90;;;;;;5092311;28;20596;-78
2021/04/05 02:33:23;;;;;;;31.77;12.00;;;6.80;78.50;;;;;;5091319;28;20199;-78
2021/04/05 02:35:49;;;;;;;27.83;14.45;;;6.80;78.50;;;;;;5092655;28;20191;-78
2021/04/05 02:38:16;;;;;;;31.48;13.43;;;6.80;78.40;;;;;;5092752;28;20182;-77
2021/04/05 02:40:43;;;;;;;37.72;14.20;;;6.80;78.40;;;;;;5092254;28;20207;-78
2021/04/05 02:43:11;;;;;;;32.47;13.43;;;6.80;78.50;;;;;;5092519;28;20602;-78
2021/04/05 02:45:39;;;;;;;33.85;15.57;;;6.80;78.70;;;;;;5092632;28;20202;-78
2021/04/05 02:48:07;;;;;;;30.70;13.20;;;6.70;78.70;;;;;;5092836;28;20627;-78
2021/04/05 02:50:33;;;;;;;30.65;13.48;;;6.80;78.80;;;;;;5091396;28;20726;-78
2021/04/05 02:53:04;;;;;;;32.50;15.10;;;6.80;78.80;;;;;;5092705;28;20208;-78
2021/04/05 02:55:30;;;;;;;34.17;14.15;;;6.70;79.00;;;;;;5091461;28;20176;-78
2021/04/05 02:57:57;;;;;;;28.30;12.85;;;6.80;79.10;;;;;;5095054;28;20176;-77
2021/04/05 03:00:23;;;;;;;29.38;14.43;;;6.70;79.20;;;;;;5095092;28;20240;-76
2021/04/05 03:02:52;;;;;;;41.75;14.20;;;6.60;79.50;;;;;;5095832;28;20195;-77
2021/04/05 03:05:21;;;;;;;44.85;15.63;;;6.80;79.70;;;;;;5095015;28;20186;-77
2021/04/05 03:07:50;;;;;;;41.83;15.23;;;6.80;79.60;;;;;;5096393;28;20178;-77
2021/04/05 03:10:17;;;;;;;27.40;12.95;;;7.00;79.60;;;;;;5096382;28;20180;-77
2021/04/05 03:12:44;;;;;;;31.60;14.63;;;7.00;80.20;;;;;;5110744;28;20688;-77
2021/04/05 03:15:13;;;;;;;35.70;16.58;;;6.90;79.50;;;;;;5115359;28;20175;-77
2021/04/05 03:17:40;;;;;;;27.50;14.77;;;6.90;79.70;;;;;;5115331;28;20190;-78
2021/04/05 03:20:20;;;;;;;43.55;14.43;;;6.90;79.70;;;;;;5115168;28;20633;-78
2021/04/05 03:22:46;;;;;;;42.63;16.60;;;6.90;79.70;;;;;;5114897;28;20199;-78
2021/04/05 03:25:18;;;;;;;34.58;15.43;;;7.00;79.80;;;;;;5115021;28;20634;-77
2021/04/05 03:27:45;;;;;;;32.45;15.40;;;6.90;80.00;;;;;;5115030;28;20183;-78
2021/04/05 03:30:15;;;;;;;39.00;16.45;;;7.00;80.10;;;;;;5116248;28;20178;-77
2021/04/05 03:32:43;;;;;;;32.90;17.10;;;7.10;80.10;;;;;;5115542;28;20284;-78
2021/04/05 03:35:13;;;;;;;39.58;17.35;;;7.10;80.00;;;;;;5116005;28;20187;-77
2021/04/05 03:37:43;;;;;;;43.05;17.05;;;7.10;80.00;;;;;;5114981;28;20174;-77
2021/04/05 03:40:10;;;;;;;31.52;16.25;;;7.10;80.00;;;;;;5114831;28;20603;-77
2021/04/05 03:42:49;;;;;;;37.38;16.00;;;7.00;80.00;;;;;;5115506;28;20256;-78
2021/04/05 03:45:19;;;;;;;42.08;15.90;;;7.10;80.30;;;;;;5114476;28;20692;-78
2021/04/05 03:48:11;;;;;;;38.75;17.02;;;7.00;80.20;;;;;;5116078;28;20203;-77
2021/04/05 03:50:55;;;;;;;43.47;16.88;;;7.00;80.40;;;;;;5115615;28;20187;-78
2021/04/05 03:53:42;;;;;;;32.38;15.02;;;7.20;80.50;;;;;;5116153;28;20266;-77
2021/04/05 03:56:17;;;;;;;37.00;15.57;;;7.30;80.40;;;;;;5116119;28;20167;-77
2021/04/05 03:58:46;;;;;;;37.63;18.25;;;7.20;80.40;;;;;;5105627;28;20182;-77
2021/04/05 04:01:17;;;;;;;37.10;18.75;;;7.20;80.50;;;;;;5095137;28;20164;-77
2021/04/05 04:04:06;;;;;;;44.70;16.63;;;7.20;80.60;;;;;;5095714;28;20164;-78
2021/04/05 04:06:39;;;;;;;40.42;16.58;;;7.20;81.40;;;;;;5095687;28;20152;-77
2021/04/05 04:09:06;;;;;;;36.53;16.85;;;7.20;80.70;;;;;;5094900;28;20175;-77
2021/04/05 04:11:35;;;;;;;41.92;17.63;;;7.20;80.90;;;;;;5098993;28;20689;-77
2021/04/05 04:14:03;;;;;;;44.22;19.10;;;7.30;81.00;;;;;;5115896;28;20210;-77
2021/04/05 04:16:29;;;;;;;46.17;17.95;;;7.20;80.90;;;;;;5114275;28;20258;-78
2021/04/05 04:18:58;;;;;;;42.25;17.35;;;7.20;81.20;;;;;;5114329;28;20241;-77
2021/04/05 04:21:25;;;;;;;48.63;18.60;;;7.20;81.10;;;;;;5114771;28;20224;-78
2021/04/05 04:23:51;;;;;;;50.40;19.70;;;7.20;81.30;;;;;;5115366;28;20175;-78
2021/04/05 04:26:17;;;;;;;36.60;16.93;;;7.20;81.30;;;;;;5113884;28;20250;-78
2021/04/05 04:28:44;;;;;;;44.40;18.87;;;7.20;81.40;;;;;;5113859;28;20417;-78
2021/04/05 04:31:10;;;;;;;36.88;16.70;;;7.10;81.60;;;;;;5114643;28;20409;-78
2021/04/05 04:33:35;;;;;;;45.17;17.43;;;7.10;81.80;;;;;;5113983;28;20210;-78
2021/04/05 04:36:01;;;;;;;37.07;17.00;;;7.30;81.80;;;;;;5115821;28;20763;-77
2021/04/05 04:38:28;;;;;;;37.80;17.92;;;7.20;81.70;;;;;;5115318;28;20164;-78
2021/04/05 04:40:54;;;;;;;51.00;18.67;;;7.30;81.60;;;;;;5113127;28;20179;-78
2021/04/05 04:43:20;;;;;;;42.10;19.10;;;7.40;81.50;;;;;;5115118;28;20606;-78
2021/04/05 04:45:46;;;;;;;42.10;16.95;;;7.30;81.60;;;;;;5115770;28;20258;-78
2021/04/05 04:48:12;;;;;;;36.03;17.92;;;7.30;81.60;;;;;;5114683;28;20665;-77
2021/04/05 04:50:39;;;;;;;33.65;15.00;;;7.40;81.60;;;;;;5112761;28;20195;-78
2021/04/05 04:53:04;;;;;;;38.90;17.08;;;7.50;81.40;;;;;;5114545;28;20735;-77
2021/04/05 04:55:31;;;;;;;46.17;17.60;;;7.50;81.20;;;;;;5113292;28;20171;-78
2021/04/05 04:58:01;;;;;;;50.65;19.35;;;7.50;81.10;;;;;;5110081;28;20179;-78
2021/04/05 05:00:28;;;;;;;32.60;16.88;;;7.60;81.00;;;;;;5092321;28;20183;-78
2021/04/05 05:02:59;;;;;;;35.97;17.17;;;7.60;80.90;;;;;;5093129;28;20226;-77
2021/04/05 05:05:33;;;;;;;35.03;18.60;;;7.70;80.80;;;;;;5094105;28;20164;-78
2021/04/05 05:07:59;;;;;;;43.45;17.73;;;7.60;80.80;;;;;;5093477;28;20259;-78
2021/04/05 05:10:25;;;;;;;47.00;16.35;;;7.60;80.80;;;;;;5092746;28;20208;-78
2021/04/05 05:12:51;;;;;;;44.15;17.48;;;7.60;80.80;;;;;;5092421;28;20204;-78
2021/04/05 05:15:17;;;;;;;36.70;18.17;;;7.70;80.90;;;;;;5092821;28;20176;-77
2021/04/05 05:17:48;;;;;;;32.97;16.17;;;7.60;80.80;;;;;;5092709;28;20414;-77
2021/04/05 05:20:16;;;;;;;48.80;19.50;;;7.70;80.90;;;;;;5092345;28;20179;-78
2021/04/05 05:22:56;;;;;;;45.80;18.52;;;7.70;80.90;;;;;;5093269;28;20199;-78
2021/04/05 05:25:23;;;;;;;45.35;18.10;;;7.70;80.90;;;;;;5093743;28;20164;-77
2021/04/05 05:28:06;;;;;;;36.63;16.90;;;7.90;80.80;;;;;;5093534;28;20269;-77
2021/04/05 05:30:32;;;;;;;38.10;17.98;;;7.90;80.70;;;;;;5091942;28;20191;-78
2021/04/05 05:33:03;;;;;;;34.63;16.40;;;7.90;80.60;;;;;;5092032;28;20261;-78
2021/04/05 05:35:29;;;;;;;35.70;17.77;;;7.80;80.50;;;;;;5093593;28;20213;-77
2021/04/05 05:38:06;;;;;;;42.37;19.10;;;7.80;80.80;;;;;;5092262;28;20183;-77
2021/04/05 05:40:33;;;;;;;44.95;16.50;;;7.80;80.70;;;;;;5091997;28;20417;-78
2021/04/05 05:43:41;;;;;;;38.97;17.17;;;7.80;80.90;;;;;;5093213;28;20512;-77
2021/04/05 05:46:20;;;;;;;35.45;16.55;;;7.90;80.80;;;;;;5093450;28;20167;-77
2021/04/05 05:49:06;;;;;;;52.40;18.85;;;7.90;80.80;;;;;;5093068;28;20688;-78
2021/04/05 05:51:57;;;;;;;31.15;15.95;;;7.90;80.80;;;;;;5092741;28;20271;-78
2021/04/05 05:54:46;;;;;;;43.13;18.63;;;8.00;80.60;;;;;;5093238;28;20172;-78
2021/04/05 05:57:33;;;;;;;41.05;17.08;;;8.10;80.50;;;;;;5093273;28;20153;-78
2021/04/05 06:00:13;;;;;;;45.92;17.70;;;8.00;80.20;;;;;;5091871;28;20575;-78
2021/04/05 06:03:16;;;;;;;37.03;17.65;;;8.00;80.20;;;;;;5091150;28;20192;-78
2021/04/05 06:05:56;;;;;;;38.80;19.80;;;8.10;80.10;;;;;;5091706;28;20193;-78
2021/04/05 06:08:53;;;;;;;37.03;17.20;;;8.10;80.10;;;;;;5091664;28;20198;-77
2021/04/05 06:11:37;;;;;;;44.67;17.95;;;8.10;80.10;;;;;;5094610;28;20186;-77
2021/04/05 06:14:35;;;;;;;54.53;18.10;;;8.20;80.00;;;;;;5113245;28;20291;-77
2021/04/05 06:17:31;;;;;;;43.63;17.48;;;8.20;80.00;;;;;;5113406;28;20655;-77
2021/04/05 06:20:12;;;;;;;43.35;16.45;;;8.30;79.90;;;;;;5113271;28;20171;-78
2021/04/05 06:23:15;;;;;;;42.75;17.73;;;8.40;79.70;;;;;;5112649;28;20274;-78
2021/04/05 06:26:18;;;;;;;39.08;16.65;;;8.30;79.70;;;;;;5113311;28;20175;-78
2021/04/05 06:28:57;;;;;;;32.40;17.27;;;8.40;79.60;;;;;;5113201;28;20178;-78
2021/04/05 06:31:30;;;;;;;40.88;15.45;;;8.40;79.50;;;;;;5111447;28;20263;-78
2021/04/05 06:34:04;;;;;;;30.65;14.30;;;8.50;79.50;;;;;;5116237;28;20203;-78
2021/04/05 06:36:52;;;;;;;38.28;16.50;;;8.50;79.40;;;;;;5116116;28;20546;-78
2021/04/05 06:39:28;;;;;;;32.88;16.55;;;8.50;79.50;;;;;;5117039;28;20174;-78
2021/04/05 06:42:24;;;;;;;32.80;16.13;;;8.60;79.40;;;;;;5118791;28;20524;-78
2021/04/05 06:45:15;;;;;;;37.90;14.95;;;8.50;79.60;;;;;;5117351;28;20167;-78
2021/04/05 06:47:44;;;;;;;47.65;19.35;;;8.50;80.20;;;;;;5117592;28;20537;-79
2021/04/05 06:50:37;;;;;;;42.60;17.95;;;8.50;81.00;;;;;;5117142;28;20239;-78
2021/04/05 06:53:24;;;;;;;27.42;11.52;;;8.30;82.10;;;;;;5115760;28;20203;-78
2021/04/05 06:55:56;;;;;;;13.95;3.85;;;7.80;81.80;;;;;;5117225;28;20274;-78
2021/04/05 06:58:25;;;;;;;26.67;6.95;;;7.40;79.80;;;;;;5109284;28;20586;-78
2021/04/05 07:01:16;;;;;;;23.13;4.70;;;7.40;80.20;;;;;;5094881;28;20176;-78
2021/04/05 07:04:14;;;;;;;6.95;2.78;;;7.30;80.20;;;;;;5097089;28;20194;-78
2021/04/05 07:07:04;;;;;;;19.90;3.47;;;7.00;79.40;;;;;;5052000;28;20180;-78
2021/04/05 07:09:46;;;;;;;12.52;3.10;;;6.90;78.60;;;;;;5095541;28;20274;-78
2021/04/05 07:12:12;;;;;;;12.75;2.60;;;6.90;78.90;;;;;;5105329;28;20220;-78
2021/04/05 07:15:19;;;;;;;19.67;3.07;;;6.90;79.40;;;;;;5115554;28;20274;-78
2021/04/05 07:18:08;;;;;;;9.68;3.17;;;7.00;79.40;;;;;;5116968;28;20171;-78
2021/04/05 07:21:02;;;;;;;23.20;3.33;;;7.00;78.80;;;;;;5114839;28;20182;-78
2021/04/05 07:23:33;;;;;;;19.10;3.00;;;7.20;78.80;;;;;;5116543;28;20191;-78
2021/04/05 07:26:20;;;;;;;16.98;2.30;;;7.00;78.50;;;;;;5115117;28;20270;-77
2021/04/05 07:29:02;;;;;;;11.30;2.65;;;7.00;78.60;;;;;;5116955;28;20629;-78
2021/04/05 07:32:01;;;;;;;9.60;3.22;;;7.20;78.90;;;;;;5114515;28;20214;-78
2021/04/05 07:34:42;;;;;;;10.27;2.42;;;7.30;79.10;;;;;;5114950;28;20183;-78
2021/04/05 07:37:39;;;;;;;7.88;3.00;;;7.30;79.20;;;;;;5114860;28;20171;-78
2021/04/05 07:40:22;;;;;;;15.15;2.92;;;7.30;79.00;;;;;;5106379;28;20279;-78
2021/04/05 07:43:12;;;;;;;4.25;1.98;;;7.20;78.90;;;;;;5115466;28;20191;-78
2021/04/05 07:46:09;;;;;;;4.53;1.45;;;6.80;81.30;;;;;;5116204;28;20551;-78
2021/04/05 07:48:39;;;;;;;1.63;1.52;;;6.40;82.10;;;;;;5115989;28;20195;-78
2021/04/05 07:51:16;;;;;;;1.65;1.55;;;6.60;83.30;;;;;;5115545;28;20194;-78
2021/04/05 07:53:57;;;;;;;2.72;1.40;;;6.40;83.50;;;;;;5114534;28;20546;-78
2021/04/05 07:56:33;;;;;;;2.60;1.67;;;6.10;84.00;;;;;;5114550;28;20175;-78
2021/04/05 07:59:08;;;;;;;2.58;1.30;;;6.20;84.70;;;;;;5116116;28;20313;-76
2021/04/05 08:02:11;;;;;;;3.95;2.15;;;6.10;84.70;;;;;;5116040;28;20240;-76
2021/04/05 08:04:55;;;;;;;4.85;2.55;;;6.10;85.00;;;;;;5116064;28;20171;-76
2021/04/05 08:07:46;;;;;;;3.53;2.58;;;6.00;83.00;;;;;;5114184;28;20175;-76
2021/04/05 08:10:37;;;;;;;3.78;2.70;;;5.90;82.50;;;;;;5115507;28;20239;-76
2021/04/05 08:13:26;;;;;;;9.70;3.03;;;5.80;82.40;;;;;;5097278;28;20243;-76
2021/04/05 08:16:15;;;;;;;6.88;2.88;;;5.70;82.00;;;;;;5093397;28;20255;-77
2021/04/05 08:18:55;;;;;;;9.13;2.55;;;5.70;81.20;;;;;;5073454;28;20201;-77
2021/04/05 08:21:24;;;;;;;6.38;2.10;;;5.70;80.20;;;;;;5081239;28;20254;-78
2021/04/05 08:24:20;;;;;;;9.73;2.33;;;5.60;79.30;;;;;;5093691;28;20186;-78
2021/04/05 08:27:02;;;;;;;11.05;2.25;;;5.60;78.60;;;;;;5094597;28;20175;-77
2021/04/05 08:29:40;;;;;;;6.43;3.53;;;5.60;78.80;;;;;;5094829;28;20168;-78
2021/04/05 08:32:18;;;;;;;18.40;2.90;;;5.60;79.00;;;;;;5093714;28;20207;-78
2021/04/05 08:35:25;;;;;;;17.25;3.50;;;5.40;78.40;;;;;;5093353;28;20168;-78
2021/04/05 08:38:00;;;;;;;11.93;3.22;;;5.40;77.30;;;;;;5076342;28;20190;-77
2021/04/05 08:41:07;;;;;;;5.00;2.85;;;5.20;76.80;;;;;;5092927;28;20707;-78
2021/04/05 08:44:01;;;;;;;17.17;3.72;;;5.20;76.50;;;;;;5093063;28;20202;-77
2021/04/05 08:46:32;;;;;;;7.53;3.45;;;5.30;75.20;;;;;;5094494;28;20199;-77
2021/04/05 08:49:00;;;;;;;6.50;2.80;;;5.30;74.70;;;;;;5094381;28;20290;-77
2021/04/05 08:51:40;;;;;;;10.75;2.35;;;5.30;72.40;;;;;;5093871;28;20202;-78
2021/04/05 08:54:07;;;;;;;9.00;3.03;;;5.30;71.00;;;;;;5094399;28;20195;-77
2021/04/05 08:56:42;;;;;;;7.15;2.78;;;5.30;70.70;;;;;;5093774;28;20224;-77
2021/04/05 08:59:13;;;;;;;10.55;3.05;;;5.40;71.00;;;;;;5094114;28;20675;-77
2021/04/05 09:01:57;;;;;;;18.58;2.90;;;5.20;69.10;;;;;;5092177;28;20268;-77
2021/04/05 09:04:24;;;;;;;8.30;2.80;;;5.30;69.70;;;;;;5092837;28;20164;-78
2021/04/05 09:07:21;;;;;;;10.93;2.50;;;5.50;69.90;;;;;;5094211;28;20502;-78
2021/04/05 09:09:51;;;;;;;5.70;2.60;;;5.70;69.80;;;;;;5093329;28;20227;-78
2021/04/05 09:12:19;;;;;;;10.43;2.58;;;5.90;67.20;;;;;;5103437;28;20303;-78
2021/04/05 09:15:13;;;;;;;16.92;4.10;;;6.00;65.90;;;;;;5113159;28;20200;-78
2021/04/05 09:18:08;;;;;;;9.32;2.17;;;6.20;65.50;;;;;;5078447;28;20172;-78
2021/04/05 09:20:57;;;;;;;9.13;1.95;;;5.90;63.10;;;;;;5112510;28;20159;-78
2021/04/05 09:23:44;;;;;;;8.35;2.58;;;5.80;60.70;;;;;;5114082;28;20504;-77
2021/04/05 09:26:28;;;;;;;11.27;2.95;;;5.90;60.30;;;;;;5112778;28;20514;-78
2021/04/05 09:29:09;;;;;;;9.70;2.20;;;5.80;60.70;;;;;;5114112;28;20167;-78
2021/04/05 09:31:54;;;;;;;5.45;2.10;;;5.80;61.10;;;;;;5112645;28;20205;-77
2021/04/05 09:34:41;;;;;;;8.55;1.80;;;5.70;62.40;;;;;;5114600;28;20164;-77
2021/04/05 09:37:22;;;;;;;20.08;2.10;;;5.60;63.80;;;;;;5113836;28;20151;-78
2021/04/05 09:40:26;;;;;;;12.38;2.03;;;5.90;64.30;;;;;;5114029;28;20719;-78
2021/04/05 09:43:18;;;;;;;11.10;2.67;;;5.80;64.80;;;;;;5113877;28;20197;-78
2021/04/05 09:45:47;;;;;;;8.07;1.70;;;5.70;64.10;;;;;;5081651;28;20221;-77
2021/04/05 09:48:36;;;;;;;12.38;2.38;;;5.50;63.10;;;;;;5112450;28;20600;-77
2021/04/05 09:51:20;;;;;;;7.47;1.73;;;5.20;62.40;;;;;;5111942;28;20540;-78
2021/04/05 09:54:19;;;;;;;16.33;1.42;;;5.30;60.90;;;;;;5113654;28;20646;-77
2021/04/05 09:56:51;;;;;;;10.63;1.73;;;5.50;59.90;;;;;;5112275;28;20516;-77
2021/04/05 09:59:20;;;;;;;6.97;1.80;;;5.90;59.80;;;;;;5112411;28;20171;-78
2021/04/05 10:01:53;;;;;;;10.50;1.70;;;6.40;58.30;;;;;;5111829;28;20226;-79
2021/04/05 10:04:25;;;;;;;5.20;1.60;;;6.40;57.40;;;;;;5096220;28;20179;-78
2021/04/05 10:06:53;;;;;;;9.55;1.80;;;6.30;57.50;;;;;;5114412;28;20167;-78
2021/04/05 10:09:26;;;;;;;6.60;1.90;;;6.20;57.20;;;;;;5114867;28;20195;-78
2021/04/05 10:11:53;;;;;;;8.10;1.35;;;6.20;57.30;;;;;;5106069;28;20252;-78
2021/04/05 10:14:22;;;;;;;9.93;1.80;;;6.00;55.50;;;;;;5093574;28;20302;-78
2021/04/05 10:16:53;;;;;;;4.22;1.45;;;6.00;54.90;;;;;;5092840;28;20211;-78
2021/04/05 10:19:27;;;;;;;4.43;1.77;;;5.80;54.50;;;;;;5092465;28;20167;-78
2021/04/05 10:22:00;;;;;;;17.70;2.50;;;5.90;54.60;;;;;;5091737;28;20200;-78
2021/04/05 10:24:28;;;;;;;11.70;1.92;;;5.70;53.90;;;;;;5092035;28;20506;-78
2021/04/05 10:26:57;;;;;;;12.07;2.75;;;6.10;54.40;;;;;;5097638;28;20191;-78
2021/04/05 10:29:27;;;;;;;28.30;3.17;;;6.20;54.30;;;;;;5094292;28;20198;-78
2021/04/05 10:31:54;;;;;;;6.45;1.80;;;6.20;55.60;;;;;;5091455;28;20188;-78
2021/04/05 10:34:28;;;;;;;36.60;3.25;;;6.20;56.20;;;;;;5092030;28;20172;-78
2021/04/05 10:37:02;;;;;;;16.85;2.20;;;6.10;56.30;;;;;;5092233;28;20172;-78
2021/04/05 10:39:27;;;;;;;8.70;1.77;;;6.30;56.00;;;;;;5093236;28;20164;-78
2021/04/05 10:42:02;;;;;;;7.17;1.27;;;6.40;53.80;;;;;;5091196;28;20207;-78
2021/04/05 10:44:32;;;;;;;4.80;1.60;;;6.70;52.40;;;;;;5093026;28;20401;-78
2021/04/05 10:47:00;;;;;;;12.25;1.90;;;6.90;52.30;;;;;;5091878;28;20274;-78
2021/04/05 10:49:32;;;;;;;15.38;2.28;;;6.90;51.70;;;;;;5093348;28;20666;-78
2021/04/05 10:52:42;;;;;;;20.40;2.40;;;6.90;51.00;;;;;;5092249;28;20223;-78
2021/04/05 10:55:29;;;;;;;17.60;2.75;;;6.70;51.20;;;;;;5078444;28;20211;-78
2021/04/05 10:57:59;;;;;;;25.88;3.10;;;6.80;51.20;;;;;;5091543;28;20264;-78
2021/04/05 11:00:35;;;;;;;17.20;2.45;;;6.60;51.50;;;;;;5091066;28;20518;-78
2021/04/05 11:03:14;;;;;;;12.48;3.00;;;6.60;52.10;;;;;;5091366;28;20242;-78
2021/04/05 11:05:43;;;;;;;13.35;2.70;;;6.70;50.50;;;;;;5091458;28;20638;-78
2021/04/05 11:08:14;;;;;;;18.35;2.80;;;6.60;49.00;;;;;;5091990;28;20622;-78
2021/04/05 11:10:41;;;;;;;17.60;2.80;;;6.30;47.20;;;;;;5091378;28;20266;-78
2021/04/05 11:13:12;;;;;;;16.67;2.42;;;6.20;46.80;;;;;;5110206;28;20218;-78
2021/04/05 11:15:41;;;;;;;10.27;2.67;;;6.30;47.30;;;;;;5113331;28;20179;-78
2021/04/05 11:18:14;;;;;;;6.00;2.10;;;6.40;47.00;;;;;;5113611;28;20192;-78
2021/04/05 11:20:42;;;;;;;12.85;2.25;;;6.50;46.20;;;;;;5116475;28;20261;-78
2021/04/05 11:23:22;;;;;;;19.77;2.95;;;6.70;45.50;;;;;;5119591;28;20206;-78
2021/04/05 11:25:58;;;;;;;11.35;1.90;;;6.70;44.60;;;;;;5117789;28;20170;-78
2021/04/05 11:28:26;;;;;;;24.13;2.85;;;6.70;44.20;;;;;;5125030;28;20170;-78
2021/04/05 11:31:04;;;;;;;7.28;1.80;;;6.70;43.90;;;;;;5129448;28;20182;-79
2021/04/05 11:33:36;;;;;;;6.03;1.85;;;6.40;42.10;;;;;;5129747;28;20217;-78
2021/04/05 11:36:04;;;;;;;6.93;1.90;;;6.20;40.70;;;;;;5129805;28;20156;-78
2021/04/05 11:38:36;;;;;;;3.35;1.40;;;6.30;40.40;;;;;;5118240;28;20592;-78
2021/04/05 11:41:04;;;;;;;3.53;1.73;;;6.30;40.20;;;;;;5118813;28;20152;-78
2021/04/05 11:43:36;;;;;;;8.90;1.60;;;6.40;40.60;;;;;;5119692;28;20199;-78
2021/04/05 11:46:06;;;;;;;2.25;1.10;;;6.30;40.60;;;;;;5120152;28;20172;-78
2021/04/05 11:48:32;;;;;;;3.05;1.42;;;6.30;39.60;;;;;;5118624;28;20199;-78
2021/04/05 11:50:58;;;;;;;4.40;1.73;;;6.20;38.80;;;;;;5114297;28;20556;-78
2021/04/05 11:53:33;;;;;;;6.35;1.40;;;6.10;38.00;;;;;;5114976;28;20460;-78
2021/04/05 11:56:11;;;;;;;16.58;2.50;;;6.10;38.60;;;;;;5116465;28;20155;-78
2021/04/05 11:58:51;;;;;;;9.38;1.83;;;6.00;38.60;;;;;;5116874;28;20629;-78
2021/04/05 12:01:20;;;;;;;6.20;1.70;;;5.80;39.50;;;;;;5115381;28;20665;-78
2021/04/05 12:03:52;;;;;;;3.75;1.45;;;6.00;41.30;;;;;;5117497;28;20228;-78
2021/04/05 12:06:22;;;;;;;9.75;2.08;;;6.10;41.50;;;;;;5114749;28;20179;-78
2021/04/05 12:09:22;;;;;;;7.93;1.88;;;6.10;41.30;;;;;;5116113;28;20653;-78
2021/04/05 12:11:54;;;;;;;12.15;2.00;;;5.90;40.60;;;;;;5063307;28;20286;-78
2021/04/05 12:14:26;;;;;;;3.05;1.35;;;5.90;41.10;;;;;;5095347;28;20203;-78
2021/04/05 12:16:54;;;;;;;7.03;1.50;;;6.00;37.70;;;;;;5094021;28;20176;-78
2021/04/05 12:19:45;;;;;;;4.40;1.55;;;6.10;36.50;;;;;;5096506;28;20251;-78
2021/04/05 12:22:11;;;;;;;3.97;1.08;;;6.10;34.80;;;;;;5094945;28;20191;-79
2021/04/05 12:24:41;;;;;;;2.67;1.02;;;6.40;34.00;;;;;;5093953;28;20210;-78
2021/04/05 12:27:11;;;;;;;2.97;1.15;;;6.30;32.90;;;;;;5095265;28;20258;-78
2021/04/05 12:29:39;;;;;;;7.43;1.38;;;6.30;33.50;;;;;;5094269;28;20218;-78
2021/04/05 12:32:08;;;;;;;15.43;1.55;;;6.40;34.20;;;;;;5093146;28;20677;-78
2021/04/05 12:34:36;;;;;;;4.93;1.80;;;6.60;35.10;;;;;;5093629;28;20180;-78
2021/04/05 12:37:14;;;;;;;11.90;1.92;;;6.40;37.30;;;;;;5094153;28;20203;-78
2021/04/05 12:39:41;;;;;;;4.70;1.50;;;6.20;39.50;;;;;;5094783;28;20490;-78
2021/04/05 12:42:10;;;;;;;8.73;1.90;;;6.00;40.90;;;;;;5094225;28;20187;-78
2021/04/05 12:44:38;;;;;;;4.68;1.20;;;5.80;42.40;;;;;;5094855;28;20174;-78
2021/04/05 12:47:10;;;;;;;14.82;2.15;;;5.80;41.30;;;;;;5093221;28;20661;-77
2021/04/05 12:49:47;;;;;;;3.45;1.30;;;5.70;40.60;;;;;;5095833;28;20184;-78
2021/04/05 12:52:19;;;;;;;2.45;1.13;;;5.70;40.70;;;;;;5095341;28;20191;-78
2021/04/05 12:54:51;;;;;;;4.07;1.52;;;5.70;40.60;;;;;;5097356;28;20627;-78
2021/04/05 12:57:27;;;;;;;3.08;1.70;;;5.80;40.60;;;;;;5095771;28;20187;-78
2021/04/05 12:59:53;;;;;;;11.82;1.65;;;5.90;40.90;;;;;;5097047;28;20186;-78
2021/04/05 13:02:22;;;;;;;10.30;3.35;;;6.10;40.60;;;;;;5096735;28;20265;-78
2021/04/05 13:05:42;;;;;;;4.90;1.20;;;6.00;40.70;;;;;;5095870;28;20220;-77
2021/04/05 13:08:19;;;;;;;8.40;1.50;;;6.00;41.70;;;;;;5018365;28;20346;-77
2021/04/05 13:10:55;;;;;;;4.30;1.60;;;6.20;42.40;;;;;;5095147;28;20687;-79
2021/04/05 13:13:23;;;;;;;11.85;1.75;;;6.20;42.60;;;;;;5076464;28;20212;-78
2021/04/05 13:16:00;;;;;;;7.72;1.10;;;6.40;44.40;;;;;;5078967;28;20180;-78
2021/04/05 13:18:30;;;;;;;7.60;1.75;;;6.20;49.20;;;;;;5075569;28;20663;-78
2021/04/05 13:21:07;;;;;;;7.55;1.50;;;6.20;49.80;;;;;;5076684;28;20226;-78
2021/04/05 13:23:41;;;;;;;2.15;1.35;;;6.10;48.20;;;;;;5075707;28;20172;-78
2021/04/05 13:26:10;;;;;;;5.03;1.45;;;5.70;45.10;;;;;;5074806;28;20262;-79
2021/04/05 13:28:38;;;;;;;1.13;1.02;;;5.70;43.10;;;;;;5076280;28;20276;-78